sensor_id;sensor_type;location;lat;lon;timestamp;temperature;humidity
66190;DHT22;52992;52.084;5.412;2023-11-19T00:00:08;16.90;76.80
66190;DHT22;52992;52.084;5.412;2023-11-19T00:02:40;16.80;77.40
66190;DHT22;52992;52.084;5.412;2023-11-19T00:05:08;16.80;77.50
66190;DHT22;52992;52.084;5.412;2023-11-19T00:07:36;16.80;77.30
66190;DHT22;52992;52.084;5.412;2023-11-19T00:10:04;16.80;77.50
66190;DHT22;52992;52.084;5.412;2023-11-19T00:12:41;16.80;77.40
66190;DHT22;52992;52.084;5.412;2023-11-19T00:15:08;16.80;77.10
66190;DHT22;52992;52.084;5.412;2023-11-19T00:17:39;16.80;77.50
66190;DHT22;52992;52.084;5.412;2023-11-19T00:20:14;16.80;77.60
66190;DHT22;52992;52.084;5.412;2023-11-19T00:22:42;16.80;77.70
66190;DHT22;52992;52.084;5.412;2023-11-19T00:25:12;16.80;77.50
66190;DHT22;52992;52.084;5.412;2023-11-19T00:27:39;16.80;77.50
66190;DHT22;52992;52.084;5.412;2023-11-19T00:30:06;16.90;77.50
66190;DHT22;52992;52.084;5.412;2023-11-19T00:32:33;16.90;77.30
66190;DHT22;52992;52.084;5.412;2023-11-19T00:35:00;16.90;77.10
66190;DHT22;52992;52.084;5.412;2023-11-19T00:37:27;16.90;77.20
66190;DHT22;52992;52.084;5.412;2023-11-19T00:39:54;17.00;77.20
66190;DHT22;52992;52.084;5.412;2023-11-19T00:42:22;16.90;77.00
66190;DHT22;52992;52.084;5.412;2023-11-19T00:44:51;16.90;76.80
66190;DHT22;52992;52.084;5.412;2023-11-19T00:47:18;16.90;76.90
66190;DHT22;52992;52.084;5.412;2023-11-19T00:49:48;16.90;77.00
66190;DHT22;52992;52.084;5.412;2023-11-19T00:52:18;16.80;77.00
66190;DHT22;52992;52.084;5.412;2023-11-19T00:54:45;16.80;77.10
66190;DHT22;52992;52.084;5.412;2023-11-19T00:57:12;16.80;77.00
66190;DHT22;52992;52.084;5.412;2023-11-19T00:59:44;16.80;77.20
66190;DHT22;52992;52.084;5.412;2023-11-19T01:02:11;16.80;77.10
66190;DHT22;52992;52.084;5.412;2023-11-19T01:04:38;16.80;77.10
66190;DHT22;52992;52.084;5.412;2023-11-19T01:07:05;16.80;77.00
66190;DHT22;52992;52.084;5.412;2023-11-19T01:09:33;16.80;77.30
66190;DHT22;52992;52.084;5.412;2023-11-19T01:12:03;16.70;77.40
66190;DHT22;52992;52.084;5.412;2023-11-19T01:14:31;16.80;77.50
66190;DHT22;52992;52.084;5.412;2023-11-19T01:16:57;16.80;77.30
66190;DHT22;52992;52.084;5.412;2023-11-19T01:19:25;16.80;77.20
66190;DHT22;52992;52.084;5.412;2023-11-19T01:21:52;16.80;77.20
66190;DHT22;52992;52.084;5.412;2023-11-19T01:24:19;16.80;77.20
66190;DHT22;52992;52.084;5.412;2023-11-19T01:26:46;16.80;77.00
66190;DHT22;52992;52.084;5.412;2023-11-19T01:29:14;16.80;77.40
66190;DHT22;52992;52.084;5.412;2023-11-19T01:31:45;16.80;77.40
66190;DHT22;52992;52.084;5.412;2023-11-19T01:34:13;16.80;77.20
66190;DHT22;52992;52.084;5.412;2023-11-19T01:36:40;16.80;77.20
66190;DHT22;52992;52.084;5.412;2023-11-19T01:39:07;16.80;77.10
66190;DHT22;52992;52.084;5.412;2023-11-19T01:41:34;16.80;77.20
66190;DHT22;52992;52.084;5.412;2023-11-19T01:44:02;16.70;77.30
66190;DHT22;52992;52.084;5.412;2023-11-19T01:46:30;16.80;77.20
66190;DHT22;52992;52.084;5.412;2023-11-19T01:49:00;16.80;77.20
66190;DHT22;52992;52.084;5.412;2023-11-19T01:51:27;16.80;77.10
66190;DHT22;52992;52.084;5.412;2023-11-19T01:53:55;16.70;77.10
66190;DHT22;52992;52.084;5.412;2023-11-19T01:56:24;16.70;77.20
66190;DHT22;52992;52.084;5.412;2023-11-19T01:58:54;16.70;77.10
66190;DHT22;52992;52.084;5.412;2023-11-19T02:01:22;16.70;77.10
66190;DHT22;52992;52.084;5.412;2023-11-19T02:03:49;16.70;77.00
66190;DHT22;52992;52.084;5.412;2023-11-19T02:06:16;16.70;76.90
66190;DHT22;52992;52.084;5.412;2023-11-19T02:08:43;16.70;77.00
66190;DHT22;52992;52.084;5.412;2023-11-19T02:11:10;16.70;77.10
66190;DHT22;52992;52.084;5.412;2023-11-19T02:13:39;16.70;76.80
66190;DHT22;52992;52.084;5.412;2023-11-19T02:16:08;16.70;76.80
66190;DHT22;52992;52.084;5.412;2023-11-19T02:18:38;16.70;76.90
66190;DHT22;52992;52.084;5.412;2023-11-19T02:21:05;16.60;77.00
66190;DHT22;52992;52.084;5.412;2023-11-19T02:23:32;16.60;77.00
66190;DHT22;52992;52.084;5.412;2023-11-19T02:26:16;16.50;77.40
66190;DHT22;52992;52.084;5.412;2023-11-19T02:28:45;16.50;77.70
66190;DHT22;52992;52.084;5.412;2023-11-19T02:31:12;16.40;78.00
66190;DHT22;52992;52.084;5.412;2023-11-19T02:33:39;16.40;78.30
66190;DHT22;52992;52.084;5.412;2023-11-19T02:36:07;16.40;78.20
66190;DHT22;52992;52.084;5.412;2023-11-19T02:38:35;16.40;78.40
66190;DHT22;52992;52.084;5.412;2023-11-19T02:41:06;16.40;78.40
66190;DHT22;52992;52.084;5.412;2023-11-19T02:43:34;16.30;78.40
66190;DHT22;52992;52.084;5.412;2023-11-19T02:46:02;16.20;78.20
66190;DHT22;52992;52.084;5.412;2023-11-19T02:48:41;16.20;78.20
66190;DHT22;52992;52.084;5.412;2023-11-19T02:51:10;16.10;79.20
66190;DHT22;52992;52.084;5.412;2023-11-19T02:53:37;16.10;78.40
66190;DHT22;52992;52.084;5.412;2023-11-19T02:56:07;16.10;78.80
66190;DHT22;52992;52.084;5.412;2023-11-19T02:58:47;16.10;78.70
66190;DHT22;52992;52.084;5.412;2023-11-19T03:01:21;16.00;78.40
66190;DHT22;52992;52.084;5.412;2023-11-19T03:03:58;16.00;78.50
66190;DHT22;52992;52.084;5.412;2023-11-19T03:06:26;16.00;78.30
66190;DHT22;52992;52.084;5.412;2023-11-19T03:08:57;16.00;78.30
66190;DHT22;52992;52.084;5.412;2023-11-19T03:11:24;16.00;78.50
66190;DHT22;52992;52.084;5.412;2023-11-19T03:13:51;15.90;78.40
66190;DHT22;52992;52.084;5.412;2023-11-19T03:16:18;15.90;78.30
66190;DHT22;52992;52.084;5.412;2023-11-19T03:18:45;15.90;78.30
66190;DHT22;52992;52.084;5.412;2023-11-19T03:21:12;15.80;78.30
66190;DHT22;52992;52.084;5.412;2023-11-19T03:23:39;15.80;78.00
66190;DHT22;52992;52.084;5.412;2023-11-19T03:26:07;15.80;78.00
66190;DHT22;52992;52.084;5.412;2023-11-19T03:28:35;15.80;78.10
66190;DHT22;52992;52.084;5.412;2023-11-19T03:31:04;15.80;78.30
66190;DHT22;52992;52.084;5.412;2023-11-19T03:33:35;15.70;78.00
66190;DHT22;52992;52.084;5.412;2023-11-19T03:36:01;15.70;78.20
66190;DHT22;52992;52.084;5.412;2023-11-19T03:38:28;15.60;78.10
66190;DHT22;52992;52.084;5.412;2023-11-19T03:40:55;15.70;78.10
66190;DHT22;52992;52.084;5.412;2023-11-19T03:43:22;15.60;77.80
66190;DHT22;52992;52.084;5.412;2023-11-19T03:45:49;15.60;77.60
66190;DHT22;52992;52.084;5.412;2023-11-19T03:48:16;15.60;77.90
66190;DHT22;52992;52.084;5.412;2023-11-19T03:50:43;15.60;77.70
66190;DHT22;52992;52.084;5.412;2023-11-19T03:53:11;15.50;77.70
66190;DHT22;52992;52.084;5.412;2023-11-19T03:55:38;15.60;77.30
66190;DHT22;52992;52.084;5.412;2023-11-19T03:58:05;15.50;77.30
66190;DHT22;52992;52.084;5.412;2023-11-19T04:00:32;15.50;77.00
66190;DHT22;52992;52.084;5.412;2023-11-19T04:02:59;15.50;76.90
66190;DHT22;52992;52.084;5.412;2023-11-19T04:05:27;15.50;77.00
66190;DHT22;52992;52.084;5.412;2023-11-19T04:07:54;15.40;76.60
66190;DHT22;52992;52.084;5.412;2023-11-19T04:10:21;15.40;76.80
66190;DHT22;52992;52.084;5.412;2023-11-19T04:12:49;15.40;76.70
66190;DHT22;52992;52.084;5.412;2023-11-19T04:15:16;15.40;76.70
66190;DHT22;52992;52.084;5.412;2023-11-19T04:17:44;15.30;76.60
66190;DHT22;52992;52.084;5.412;2023-11-19T04:20:11;15.30;76.40
66190;DHT22;52992;52.084;5.412;2023-11-19T04:22:41;15.30;76.60
66190;DHT22;52992;52.084;5.412;2023-11-19T04:25:08;15.30;76.40
66190;DHT22;52992;52.084;5.412;2023-11-19T04:27:36;15.30;76.50
66190;DHT22;52992;52.084;5.412;2023-11-19T04:30:03;15.30;76.30
66190;DHT22;52992;52.084;5.412;2023-11-19T04:32:31;15.30;76.10
66190;DHT22;52992;52.084;5.412;2023-11-19T04:34:58;15.30;75.90
66190;DHT22;52992;52.084;5.412;2023-11-19T04:37:25;15.30;75.70
66190;DHT22;52992;52.084;5.412;2023-11-19T04:39:52;15.30;75.50
66190;DHT22;52992;52.084;5.412;2023-11-19T04:42:22;15.30;75.60
66190;DHT22;52992;52.084;5.412;2023-11-19T04:44:49;15.30;75.50
66190;DHT22;52992;52.084;5.412;2023-11-19T04:47:16;15.20;75.20
66190;DHT22;52992;52.084;5.412;2023-11-19T04:49:43;15.20;75.20
66190;DHT22;52992;52.084;5.412;2023-11-19T04:52:10;15.20;75.20
66190;DHT22;52992;52.084;5.412;2023-11-19T04:54:42;15.10;75.00
66190;DHT22;52992;52.084;5.412;2023-11-19T04:57:12;15.20;75.00
66190;DHT22;52992;52.084;5.412;2023-11-19T04:59:39;15.10;75.00
66190;DHT22;52992;52.084;5.412;2023-11-19T05:02:07;15.10;75.00
66190;DHT22;52992;52.084;5.412;2023-11-19T05:04:35;15.10;75.00
66190;DHT22;52992;52.084;5.412;2023-11-19T05:07:02;15.10;75.00
66190;DHT22;52992;52.084;5.412;2023-11-19T05:09:29;15.10;74.80
66190;DHT22;52992;52.084;5.412;2023-11-19T05:11:57;15.00;74.80
66190;DHT22;52992;52.084;5.412;2023-11-19T05:14:24;15.00;74.80
66190;DHT22;52992;52.084;5.412;2023-11-19T05:16:51;15.10;75.00
66190;DHT22;52992;52.084;5.412;2023-11-19T05:19:18;15.00;74.80
66190;DHT22;52992;52.084;5.412;2023-11-19T05:21:45;15.00;74.60
66190;DHT22;52992;52.084;5.412;2023-11-19T05:24:12;15.00;74.60
66190;DHT22;52992;52.084;5.412;2023-11-19T05:26:39;14.90;74.50
66190;DHT22;52992;52.084;5.412;2023-11-19T05:29:07;14.90;74.50
66190;DHT22;52992;52.084;5.412;2023-11-19T05:31:34;15.00;74.60
66190;DHT22;52992;52.084;5.412;2023-11-19T05:34:03;15.00;74.50
66190;DHT22;52992;52.084;5.412;2023-11-19T05:36:31;14.90;74.40
66190;DHT22;52992;52.084;5.412;2023-11-19T05:38:58;14.90;74.70
66190;DHT22;52992;52.084;5.412;2023-11-19T05:41:24;14.90;74.90
66190;DHT22;52992;52.084;5.412;2023-11-19T05:43:51;14.80;74.60
66190;DHT22;52992;52.084;5.412;2023-11-19T05:46:18;14.80;74.70
66190;DHT22;52992;52.084;5.412;2023-11-19T05:48:47;14.80;74.50
66190;DHT22;52992;52.084;5.412;2023-11-19T05:51:15;14.80;74.60
66190;DHT22;52992;52.084;5.412;2023-11-19T05:53:44;14.80;74.60
66190;DHT22;52992;52.084;5.412;2023-11-19T05:56:13;14.80;74.40
66190;DHT22;52992;52.084;5.412;2023-11-19T05:58:40;14.80;74.40
66190;DHT22;52992;52.084;5.412;2023-11-19T06:01:07;14.80;74.20
66190;DHT22;52992;52.084;5.412;2023-11-19T06:03:36;14.80;74.20
66190;DHT22;52992;52.084;5.412;2023-11-19T06:06:04;14.80;74.20
66190;DHT22;52992;52.084;5.412;2023-11-19T06:08:32;14.80;74.30
66190;DHT22;52992;52.084;5.412;2023-11-19T06:10:59;14.80;74.20
66190;DHT22;52992;52.084;5.412;2023-11-19T06:13:28;14.80;74.30
66190;DHT22;52992;52.084;5.412;2023-11-19T06:15:57;14.80;74.30
66190;DHT22;52992;52.084;5.412;2023-11-19T06:18:24;14.80;74.20
66190;DHT22;52992;52.084;5.412;2023-11-19T06:20:52;14.80;74.10
66190;DHT22;52992;52.084;5.412;2023-11-19T06:23:18;14.80;74.20
66190;DHT22;52992;52.084;5.412;2023-11-19T06:25:46;14.80;74.20
66190;DHT22;52992;52.084;5.412;2023-11-19T06:28:13;14.80;74.20
66190;DHT22;52992;52.084;5.412;2023-11-19T06:30:40;14.80;74.20
66190;DHT22;52992;52.084;5.412;2023-11-19T06:33:08;14.80;74.20
66190;DHT22;52992;52.084;5.412;2023-11-19T06:35:35;14.70;74.20
66190;DHT22;52992;52.084;5.412;2023-11-19T06:38:05;14.70;74.40
66190;DHT22;52992;52.084;5.412;2023-11-19T06:40:35;14.70;74.40
66190;DHT22;52992;52.084;5.412;2023-11-19T06:43:03;14.70;74.30
66190;DHT22;52992;52.084;5.412;2023-11-19T06:45:35;14.70;74.20
66190;DHT22;52992;52.084;5.412;2023-11-19T06:48:04;14.70;74.20
66190;DHT22;52992;52.084;5.412;2023-11-19T06:50:32;14.80;74.00
66190;DHT22;52992;52.084;5.412;2023-11-19T06:52:59;14.80;73.70
66190;DHT22;52992;52.084;5.412;2023-11-19T06:55:27;14.80;73.70
66190;DHT22;52992;52.084;5.412;2023-11-19T06:57:54;14.80;73.70
66190;DHT22;52992;52.084;5.412;2023-11-19T07:00:21;14.80;73.60
66190;DHT22;52992;52.084;5.412;2023-11-19T07:02:48;14.80;73.60
66190;DHT22;52992;52.084;5.412;2023-11-19T07:05:16;14.80;73.60
66190;DHT22;52992;52.084;5.412;2023-11-19T07:07:43;14.70;73.70
66190;DHT22;52992;52.084;5.412;2023-11-19T07:10:13;14.70;73.60
66190;DHT22;52992;52.084;5.412;2023-11-19T07:12:40;14.70;73.80
66190;DHT22;52992;52.084;5.412;2023-11-19T07:15:09;14.70;73.70
66190;DHT22;52992;52.084;5.412;2023-11-19T07:17:36;14.70;73.70
66190;DHT22;52992;52.084;5.412;2023-11-19T07:20:03;14.70;73.70
66190;DHT22;52992;52.084;5.412;2023-11-19T07:22:31;14.70;73.80
66190;DHT22;52992;52.084;5.412;2023-11-19T07:24:58;14.70;73.90
66190;DHT22;52992;52.084;5.412;2023-11-19T07:27:25;14.70;73.80
66190;DHT22;52992;52.084;5.412;2023-11-19T07:29:52;14.70;73.60
66190;DHT22;52992;52.084;5.412;2023-11-19T07:32:19;14.70;73.50
66190;DHT22;52992;52.084;5.412;2023-11-19T07:34:46;14.80;73.40
66190;DHT22;52992;52.084;5.412;2023-11-19T07:37:13;14.80;73.40
66190;DHT22;52992;52.084;5.412;2023-11-19T07:39:40;14.80;73.20
66190;DHT22;52992;52.084;5.412;2023-11-19T07:42:08;14.80;73.40
66190;DHT22;52992;52.084;5.412;2023-11-19T07:44:36;14.80;73.30
66190;DHT22;52992;52.084;5.412;2023-11-19T07:47:04;14.70;73.30
66190;DHT22;52992;52.084;5.412;2023-11-19T07:49:31;14.70;73.60
66190;DHT22;52992;52.084;5.412;2023-11-19T07:51:58;14.70;73.60
66190;DHT22;52992;52.084;5.412;2023-11-19T07:54:25;14.70;73.80
66190;DHT22;52992;52.084;5.412;2023-11-19T07:56:52;14.80;73.60
66190;DHT22;52992;52.084;5.412;2023-11-19T07:59:19;14.80;73.40
66190;DHT22;52992;52.084;5.412;2023-11-19T08:01:47;14.80;73.20
66190;DHT22;52992;52.084;5.412;2023-11-19T08:04:14;14.90;73.40
66190;DHT22;52992;52.084;5.412;2023-11-19T08:06:42;14.80;73.30
66190;DHT22;52992;52.084;5.412;2023-11-19T08:09:09;14.90;73.50
66190;DHT22;52992;52.084;5.412;2023-11-19T08:11:43;14.90;73.60
66190;DHT22;52992;52.084;5.412;2023-11-19T08:14:10;14.90;73.50
66190;DHT22;52992;52.084;5.412;2023-11-19T08:16:39;15.00;73.40
66190;DHT22;52992;52.084;5.412;2023-11-19T08:19:06;15.00;73.10
66190;DHT22;52992;52.084;5.412;2023-11-19T08:21:33;15.00;73.10
66190;DHT22;52992;52.084;5.412;2023-11-19T08:24:00;15.10;73.20
66190;DHT22;52992;52.084;5.412;2023-11-19T08:26:27;15.00;73.00
66190;DHT22;52992;52.084;5.412;2023-11-19T08:28:54;15.00;73.10
66190;DHT22;52992;52.084;5.412;2023-11-19T08:31:21;15.10;73.40
66190;DHT22;52992;52.084;5.412;2023-11-19T08:33:48;15.10;73.00
66190;DHT22;52992;52.084;5.412;2023-11-19T08:36:18;15.10;73.00
66190;DHT22;52992;52.084;5.412;2023-11-19T08:38:45;15.00;73.20
66190;DHT22;52992;52.084;5.412;2023-11-19T08:41:12;15.10;73.20
66190;DHT22;52992;52.084;5.412;2023-11-19T08:43:39;15.10;73.30
66190;DHT22;52992;52.084;5.412;2023-11-19T08:46:10;15.10;72.90
66190;DHT22;52992;52.084;5.412;2023-11-19T08:48:38;15.20;72.60
66190;DHT22;52992;52.084;5.412;2023-11-19T08:51:05;15.30;72.60
66190;DHT22;52992;52.084;5.412;2023-11-19T08:53:32;15.20;73.10
66190;DHT22;52992;52.084;5.412;2023-11-19T08:55:59;15.20;72.60
66190;DHT22;52992;52.084;5.412;2023-11-19T08:58:27;15.30;72.40
66190;DHT22;52992;52.084;5.412;2023-11-19T09:00:54;15.30;72.30
66190;DHT22;52992;52.084;5.412;2023-11-19T09:03:21;15.40;72.00
66190;DHT22;52992;52.084;5.412;2023-11-19T09:05:48;15.40;72.20
66190;DHT22;52992;52.084;5.412;2023-11-19T09:08:15;15.40;71.90
66190;DHT22;52992;52.084;5.412;2023-11-19T09:10:42;15.50;71.80
66190;DHT22;52992;52.084;5.412;2023-11-19T09:13:09;15.50;71.80
66190;DHT22;52992;52.084;5.412;2023-11-19T09:15:36;15.50;71.80
66190;DHT22;52992;52.084;5.412;2023-11-19T09:18:03;15.60;71.90
66190;DHT22;52992;52.084;5.412;2023-11-19T09:20:31;15.60;71.60
66190;DHT22;52992;52.084;5.412;2023-11-19T09:23:05;15.70;71.50
66190;DHT22;52992;52.084;5.412;2023-11-19T09:25:33;15.70;71.20
66190;DHT22;52992;52.084;5.412;2023-11-19T09:28:03;15.70;71.30
66190;DHT22;52992;52.084;5.412;2023-11-19T09:30:30;15.70;71.40
66190;DHT22;52992;52.084;5.412;2023-11-19T09:32:57;15.70;71.50
66190;DHT22;52992;52.084;5.412;2023-11-19T09:35:24;15.70;72.10
66190;DHT22;52992;52.084;5.412;2023-11-19T09:37:51;15.60;71.40
66190;DHT22;52992;52.084;5.412;2023-11-19T09:40:18;15.60;71.40
66190;DHT22;52992;52.084;5.412;2023-11-19T09:42:47;15.70;71.60
66190;DHT22;52992;52.084;5.412;2023-11-19T09:45:15;15.70;71.30
66190;DHT22;52992;52.084;5.412;2023-11-19T09:47:44;15.80;70.80
66190;DHT22;52992;52.084;5.412;2023-11-19T09:50:17;15.90;70.70
66190;DHT22;52992;52.084;5.412;2023-11-19T09:52:46;15.90;70.60
66190;DHT22;52992;52.084;5.412;2023-11-19T09:55:14;15.90;70.80
66190;DHT22;52992;52.084;5.412;2023-11-19T09:57:41;15.90;70.60
66190;DHT22;52992;52.084;5.412;2023-11-19T10:00:11;16.00;70.60
66190;DHT22;52992;52.084;5.412;2023-11-19T10:02:40;16.00;70.20
66190;DHT22;52992;52.084;5.412;2023-11-19T10:05:09;15.90;70.40
66190;DHT22;52992;52.084;5.412;2023-11-19T10:07:37;15.90;70.60
66190;DHT22;52992;52.084;5.412;2023-11-19T10:10:05;15.90;70.50
66190;DHT22;52992;52.084;5.412;2023-11-19T10:12:32;16.00;70.20
66190;DHT22;52992;52.084;5.412;2023-11-19T10:14:59;16.00;70.20
66190;DHT22;52992;52.084;5.412;2023-11-19T10:17:33;16.10;69.70
66190;DHT22;52992;52.084;5.412;2023-11-19T10:20:00;16.20;69.50
66190;DHT22;52992;52.084;5.412;2023-11-19T10:22:28;16.20;69.10
66190;DHT22;52992;52.084;5.412;2023-11-19T10:24:54;16.20;69.20
66190;DHT22;52992;52.084;5.412;2023-11-19T10:27:24;16.20;69.50
66190;DHT22;52992;52.084;5.412;2023-11-19T10:29:52;16.20;69.60
66190;DHT22;52992;52.084;5.412;2023-11-19T10:32:19;16.30;69.60
66190;DHT22;52992;52.084;5.412;2023-11-19T10:35:05;16.40;68.90
66190;DHT22;52992;52.084;5.412;2023-11-19T10:37:33;16.40;68.80
66190;DHT22;52992;52.084;5.412;2023-11-19T10:40:02;16.30;68.80
66190;DHT22;52992;52.084;5.412;2023-11-19T10:42:31;16.30;68.60
66190;DHT22;52992;52.084;5.412;2023-11-19T10:44:59;16.20;68.70
66190;DHT22;52992;52.084;5.412;2023-11-19T10:47:25;16.20;68.90
66190;DHT22;52992;52.084;5.412;2023-11-19T10:49:55;16.40;69.00
66190;DHT22;52992;52.084;5.412;2023-11-19T10:52:23;16.40;68.40
66190;DHT22;52992;52.084;5.412;2023-11-19T10:54:55;16.40;68.30
66190;DHT22;52992;52.084;5.412;2023-11-19T10:57:29;16.40;68.10
66190;DHT22;52992;52.084;5.412;2023-11-19T11:00:01;16.50;68.40
66190;DHT22;52992;52.084;5.412;2023-11-19T11:02:29;16.40;68.40
66190;DHT22;52992;52.084;5.412;2023-11-19T11:04:59;16.30;68.70
66190;DHT22;52992;52.084;5.412;2023-11-19T11:07:26;16.30;69.70
66190;DHT22;52992;52.084;5.412;2023-11-19T11:10:06;16.30;69.00
66190;DHT22;52992;52.084;5.412;2023-11-19T11:12:36;16.30;69.10
66190;DHT22;52992;52.084;5.412;2023-11-19T11:15:11;16.30;69.20
66190;DHT22;52992;52.084;5.412;2023-11-19T11:17:41;16.30;69.00
66190;DHT22;52992;52.084;5.412;2023-11-19T11:20:10;16.30;69.00
66190;DHT22;52992;52.084;5.412;2023-11-19T11:22:54;16.40;68.80
66190;DHT22;52992;52.084;5.412;2023-11-19T11:36:53;16.50;68.00
66190;DHT22;52992;52.084;5.412;2023-11-19T11:39:27;16.50;68.50
66190;DHT22;52992;52.084;5.412;2023-11-19T11:45:05;16.60;68.20
66190;DHT22;52992;52.084;5.412;2023-11-19T11:50:13;16.60;68.10
66190;DHT22;52992;52.084;5.412;2023-11-19T11:57:56;16.90;67.40
66190;DHT22;52992;52.084;5.412;2023-11-19T12:02:57;16.70;67.70
66190;DHT22;52992;52.084;5.412;2023-11-19T12:05:26;16.70;67.70
66190;DHT22;52992;52.084;5.412;2023-11-19T12:07:56;16.70;67.70
66190;DHT22;52992;52.084;5.412;2023-11-19T12:10:25;16.70;67.40
66190;DHT22;52992;52.084;5.412;2023-11-19T12:12:58;16.70;67.60
66190;DHT22;52992;52.084;5.412;2023-11-19T12:15:27;16.80;67.20
66190;DHT22;52992;52.084;5.412;2023-11-19T12:17:55;16.80;67.20
66190;DHT22;52992;52.084;5.412;2023-11-19T12:20:23;16.80;67.90
66190;DHT22;52992;52.084;5.412;2023-11-19T12:22:54;16.70;67.40
66190;DHT22;52992;52.084;5.412;2023-11-19T12:25:21;16.70;67.30
66190;DHT22;52992;52.084;5.412;2023-11-19T12:27:52;16.70;67.30
66190;DHT22;52992;52.084;5.412;2023-11-19T12:30:24;16.60;67.40
66190;DHT22;52992;52.084;5.412;2023-11-19T12:32:53;16.70;67.40
66190;DHT22;52992;52.084;5.412;2023-11-19T12:35:21;16.60;67.30
66190;DHT22;52992;52.084;5.412;2023-11-19T12:37:50;16.60;67.40
66190;DHT22;52992;52.084;5.412;2023-11-19T12:40:22;16.50;68.10
66190;DHT22;52992;52.084;5.412;2023-11-19T12:42:51;16.50;67.50
66190;DHT22;52992;52.084;5.412;2023-11-19T12:45:18;16.50;67.10
66190;DHT22;52992;52.084;5.412;2023-11-19T12:47:47;16.60;67.00
66190;DHT22;52992;52.084;5.412;2023-11-19T12:50:17;16.70;66.90
66190;DHT22;52992;52.084;5.412;2023-11-19T12:52:58;16.80;66.50
66190;DHT22;52992;52.084;5.412;2023-11-19T12:55:29;16.80;66.20
66190;DHT22;52992;52.084;5.412;2023-11-19T12:57:57;16.80;66.20
66190;DHT22;52992;52.084;5.412;2023-11-19T13:00:26;16.90;66.40
66190;DHT22;52992;52.084;5.412;2023-11-19T13:02:57;16.80;66.20
66190;DHT22;52992;52.084;5.412;2023-11-19T13:05:33;16.80;66.50
66190;DHT22;52992;52.084;5.412;2023-11-19T13:08:04;16.80;66.80
66190;DHT22;52992;52.084;5.412;2023-11-19T13:10:32;16.70;66.70
66190;DHT22;52992;52.084;5.412;2023-11-19T13:13:04;16.70;66.50
66190;DHT22;52992;52.084;5.412;2023-11-19T13:15:33;16.70;66.60
66190;DHT22;52992;52.084;5.412;2023-11-19T13:18:00;16.60;66.40
66190;DHT22;52992;52.084;5.412;2023-11-19T13:20:27;16.50;67.00
66190;DHT22;52992;52.084;5.412;2023-11-19T13:22:55;16.50;67.50
66190;DHT22;52992;52.084;5.412;2023-11-19T13:25:23;16.50;67.50
66190;DHT22;52992;52.084;5.412;2023-11-19T13:27:50;16.50;67.30
66190;DHT22;52992;52.084;5.412;2023-11-19T13:30:17;16.50;67.50
66190;DHT22;52992;52.084;5.412;2023-11-19T13:32:48;16.40;67.60
66190;DHT22;52992;52.084;5.412;2023-11-19T13:35:15;16.50;68.00
66190;DHT22;52992;52.084;5.412;2023-11-19T13:37:44;16.50;68.20
66190;DHT22;52992;52.084;5.412;2023-11-19T13:40:11;16.40;68.20
66190;DHT22;52992;52.084;5.412;2023-11-19T13:42:43;16.40;68.40
66190;DHT22;52992;52.084;5.412;2023-11-19T13:45:12;16.40;68.50
66190;DHT22;52992;52.084;5.412;2023-11-19T13:47:41;16.40;68.70
66190;DHT22;52992;52.084;5.412;2023-11-19T13:50:09;16.40;68.90
66190;DHT22;52992;52.084;5.412;2023-11-19T13:52:38;16.40;69.00
66190;DHT22;52992;52.084;5.412;2023-11-19T13:55:10;16.40;69.00
66190;DHT22;52992;52.084;5.412;2023-11-19T13:57:38;16.30;69.10
66190;DHT22;52992;52.084;5.412;2023-11-19T14:00:10;16.30;69.20
66190;DHT22;52992;52.084;5.412;2023-11-19T14:02:43;16.20;69.40
66190;DHT22;52992;52.084;5.412;2023-11-19T14:05:10;16.20;69.70
66190;DHT22;52992;52.084;5.412;2023-11-19T14:07:38;16.20;69.80
66190;DHT22;52992;52.084;5.412;2023-11-19T14:10:06;16.20;69.70
66190;DHT22;52992;52.084;5.412;2023-11-19T14:12:37;16.20;69.80
66190;DHT22;52992;52.084;5.412;2023-11-19T14:15:05;16.20;69.70
66190;DHT22;52992;52.084;5.412;2023-11-19T14:17:50;16.10;69.70
66190;DHT22;52992;52.084;5.412;2023-11-19T14:20:17;16.20;69.60
66190;DHT22;52992;52.084;5.412;2023-11-19T14:22:45;16.10;69.70
66190;DHT22;52992;52.084;5.412;2023-11-19T14:25:15;16.10;69.90
66190;DHT22;52992;52.084;5.412;2023-11-19T14:27:43;16.10;69.90
66190;DHT22;52992;52.084;5.412;2023-11-19T14:30:11;16.20;69.80
66190;DHT22;52992;52.084;5.412;2023-11-19T14:32:41;16.10;69.60
66190;DHT22;52992;52.084;5.412;2023-11-19T14:35:10;16.10;69.70
66190;DHT22;52992;52.084;5.412;2023-11-19T14:37:37;16.10;69.90
66190;DHT22;52992;52.084;5.412;2023-11-19T14:40:04;16.10;69.90
66190;DHT22;52992;52.084;5.412;2023-11-19T14:42:32;16.00;69.80
66190;DHT22;52992;52.084;5.412;2023-11-19T14:44:59;16.00;69.80
66190;DHT22;52992;52.084;5.412;2023-11-19T14:47:26;16.00;70.40
66190;DHT22;52992;52.084;5.412;2023-11-19T14:49:53;16.00;69.30
66190;DHT22;52992;52.084;5.412;2023-11-19T14:52:20;16.10;69.50
66190;DHT22;52992;52.084;5.412;2023-11-19T14:54:47;16.10;69.20
66190;DHT22;52992;52.084;5.412;2023-11-19T14:57:14;16.00;69.10
66190;DHT22;52992;52.084;5.412;2023-11-19T14:59:41;16.00;69.20
66190;DHT22;52992;52.084;5.412;2023-11-19T15:02:08;16.00;69.30
66190;DHT22;52992;52.084;5.412;2023-11-19T15:04:35;16.00;69.20
66190;DHT22;52992;52.084;5.412;2023-11-19T15:07:02;16.00;69.10
66190;DHT22;52992;52.084;5.412;2023-11-19T15:09:31;16.00;69.20
66190;DHT22;52992;52.084;5.412;2023-11-19T15:11:59;16.00;69.20
66190;DHT22;52992;52.084;5.412;2023-11-19T15:14:26;16.00;69.00
66190;DHT22;52992;52.084;5.412;2023-11-19T15:16:53;16.00;69.00
66190;DHT22;52992;52.084;5.412;2023-11-19T15:19:20;16.00;69.00
66190;DHT22;52992;52.084;5.412;2023-11-19T15:21:47;16.00;69.00
66190;DHT22;52992;52.084;5.412;2023-11-19T15:24:14;16.00;68.60
66190;DHT22;52992;52.084;5.412;2023-11-19T15:26:41;16.00;68.50
66190;DHT22;52992;52.084;5.412;2023-11-19T15:29:08;16.00;68.50
66190;DHT22;52992;52.084;5.412;2023-11-19T15:31:36;16.00;68.50
66190;DHT22;52992;52.084;5.412;2023-11-19T15:34:03;16.00;68.60
66190;DHT22;52992;52.084;5.412;2023-11-19T15:36:30;16.10;68.30
66190;DHT22;52992;52.084;5.412;2023-11-19T15:38:58;16.10;68.20
66190;DHT22;52992;52.084;5.412;2023-11-19T15:41:25;16.00;68.10
66190;DHT22;52992;52.084;5.412;2023-11-19T15:43:54;16.00;68.10
66190;DHT22;52992;52.084;5.412;2023-11-19T15:46:21;16.00;68.10
66190;DHT22;52992;52.084;5.412;2023-11-19T15:48:49;16.00;68.20
66190;DHT22;52992;52.084;5.412;2023-11-19T15:51:16;15.90;68.20
66190;DHT22;52992;52.084;5.412;2023-11-19T15:53:44;15.90;68.30
66190;DHT22;52992;52.084;5.412;2023-11-19T15:56:13;15.90;68.20
66190;DHT22;52992;52.084;5.412;2023-11-19T15:58:40;15.90;68.10
66190;DHT22;52992;52.084;5.412;2023-11-19T16:01:07;15.90;67.90